createdAt,value
2019-03-18T00:00:35.999Z,16.17
2019-03-18T00:03:05.252Z,16.13
2019-03-18T00:05:34.292Z,17.53
2019-03-18T00:08:03.296Z,16.17
2019-03-18T00:10:33.070Z,16.27
2019-03-18T00:13:02.083Z,17.70
2019-03-18T00:15:31.099Z,17.27
2019-03-18T00:18:00.135Z,15.30
2019-03-18T00:20:29.183Z,18.03
2019-03-18T00:22:58.241Z,17.20
2019-03-18T00:25:27.254Z,17.77
2019-03-18T00:27:56.258Z,16.33
2019-03-18T00:30:25.307Z,17.20
2019-03-18T00:32:54.372Z,15.37
2019-03-18T00:35:23.428Z,16.13
2019-03-18T00:37:52.834Z,16.07
2019-03-18T00:40:21.895Z,18.77
2019-03-18T00:42:50.908Z,14.77
2019-03-18T00:45:19.957Z,15.87
2019-03-18T00:47:48.965Z,14.97
2019-03-18T00:50:18.028Z,16.03
2019-03-18T00:52:47.013Z,17.27
2019-03-18T00:55:16.014Z,16.17
2019-03-18T00:57:45.061Z,17.03
2019-03-18T01:00:14.159Z,16.93
2019-03-18T01:02:43.189Z,16.43
2019-03-18T01:05:12.230Z,16.30
2019-03-18T01:07:41.402Z,16.60
2019-03-18T01:10:11.139Z,16.50
2019-03-18T01:12:40.152Z,18.43
2019-03-18T01:15:09.552Z,16.33
2019-03-18T01:17:38.551Z,17.00
2019-03-18T01:20:07.636Z,18.40
2019-03-18T01:22:36.688Z,19.13
2019-03-18T01:25:06.056Z,17.63
2019-03-18T01:27:35.066Z,16.83
2019-03-18T01:30:04.340Z,18.27
2019-03-18T01:32:33.419Z,17.70
2019-03-18T01:35:02.770Z,17.00
2019-03-18T01:37:31.825Z,17.87
2019-03-18T01:40:00.853Z,17.37
2019-03-18T01:42:29.922Z,16.40
2019-03-18T01:44:58.864Z,16.87
2019-03-18T01:47:27.922Z,16.43
2019-03-18T01:49:56.935Z,16.60
2019-03-18T01:52:26.001Z,16.30
2019-03-18T01:54:55.007Z,20.03
2019-03-18T01:57:24.237Z,19.20
2019-03-18T01:59:53.217Z,16.43
2019-03-18T02:02:22.229Z,16.93
2019-03-18T02:04:51.632Z,17.20
2019-03-18T02:07:20.633Z,17.00
2019-03-18T02:09:49.649Z,16.93
2019-03-18T02:12:18.702Z,16.20
2019-03-18T02:14:47.718Z,16.33
2019-03-18T02:17:17.065Z,15.47
2019-03-18T02:19:46.203Z,16.63
2019-03-18T02:22:15.324Z,15.53
2019-03-18T02:24:44.332Z,14.47
2019-03-18T02:27:13.306Z,14.60
2019-03-18T02:29:42.633Z,15.20
2019-03-18T02:32:12.036Z,14.90
2019-03-18T02:34:41.093Z,15.90
2019-03-18T02:37:10.155Z,15.53
2019-03-18T02:39:39.080Z,17.27
2019-03-18T02:42:08.139Z,15.50
2019-03-18T02:44:37.172Z,17.10
2019-03-18T02:47:06.182Z,18.70
2019-03-18T02:49:35.239Z,16.80
2019-03-18T02:52:04.242Z,17.83
2019-03-18T02:54:33.287Z,19.13
2019-03-18T02:57:02.373Z,18.13
2019-03-18T02:59:31.384Z,17.10
2019-03-18T03:02:00.387Z,15.10
2019-03-18T03:04:29.445Z,16.37
2019-03-18T03:06:58.486Z,17.47
2019-03-18T03:09:27.521Z,16.50
2019-03-18T03:11:56.537Z,15.60
2019-03-18T03:14:25.596Z,16.70
2019-03-18T03:16:55.077Z,18.43
2019-03-18T03:19:24.041Z,18.27
2019-03-18T03:21:53.054Z,17.33
2019-03-18T03:24:22.046Z,17.20
2019-03-18T03:26:51.110Z,19.17
2019-03-18T03:29:20.170Z,18.93
2019-03-18T03:31:49.222Z,16.80
2019-03-18T03:34:18.313Z,15.30
2019-03-18T03:36:47.304Z,16.47
2019-03-18T03:39:16.320Z,14.70
2019-03-18T03:41:45.398Z,14.43
2019-03-18T03:44:14.411Z,16.60
2019-03-18T03:46:44.197Z,14.73
2019-03-18T03:49:13.242Z,15.47
2019-03-18T03:51:42.262Z,16.07
2019-03-18T03:54:11.309Z,15.67
2019-03-18T03:56:40.330Z,14.87
2019-03-18T03:59:09.715Z,16.47
2019-03-18T04:01:38.732Z,17.27
2019-03-18T04:04:07.837Z,15.63
2019-03-18T04:06:36.729Z,17.90
2019-03-18T04:09:07.273Z,18.90
2019-03-18T04:11:36.620Z,18.70
2019-03-18T04:14:05.831Z,18.23
2019-03-18T04:16:34.921Z,17.30
2019-03-18T04:19:03.950Z,17.70
2019-03-18T04:21:33.024Z,18.67
2019-03-18T04:24:02.041Z,18.60
2019-03-18T04:26:31.287Z,19.03
2019-03-18T04:29:00.272Z,18.03
2019-03-18T04:31:29.297Z,17.17
2019-03-18T04:33:58.233Z,18.13
2019-03-18T04:36:27.303Z,18.40
2019-03-18T04:38:56.364Z,18.17
2019-03-18T04:41:25.282Z,18.50
2019-03-18T04:43:54.287Z,16.63
2019-03-18T04:46:23.311Z,16.90
2019-03-18T04:48:52.327Z,17.90
2019-03-18T04:51:21.370Z,20.33
2019-03-18T04:53:50.397Z,19.43
2019-03-18T04:56:19.450Z,17.30
2019-03-18T04:58:48.497Z,19.13
2019-03-18T05:01:17.524Z,19.00
2019-03-18T05:03:46.804Z,19.37
2019-03-18T05:06:15.871Z,19.20
2019-03-18T05:08:44.882Z,21.20
2019-03-18T05:11:13.933Z,19.97
2019-03-18T05:13:42.844Z,20.80
2019-03-18T05:16:11.893Z,16.40
2019-03-18T05:18:40.865Z,16.20
2019-03-18T05:21:09.934Z,13.53
2019-03-18T05:23:38.942Z,15.23
2019-03-18T05:26:07.996Z,13.80
2019-03-18T05:28:37.034Z,12.17
2019-03-18T05:31:06.138Z,12.67
2019-03-18T05:33:35.154Z,12.63
2019-03-18T05:36:04.175Z,12.70
2019-03-18T05:38:33.185Z,13.30
2019-03-18T05:41:02.209Z,14.37
2019-03-18T05:43:31.221Z,15.03
2019-03-18T05:46:00.293Z,16.93
2019-03-18T05:48:29.230Z,14.80
2019-03-18T05:50:58.306Z,16.80
2019-03-18T05:53:27.662Z,17.77
2019-03-18T05:55:56.697Z,16.37
2019-03-18T05:58:25.772Z,18.50
2019-03-18T06:00:54.721Z,18.80
2019-03-18T06:03:23.741Z,17.53
2019-03-18T06:05:52.832Z,18.40
2019-03-18T06:08:21.886Z,17.63
2019-03-18T06:10:50.897Z,15.30
2019-03-18T06:13:20.095Z,16.03
2019-03-18T06:15:49.038Z,15.93
2019-03-18T06:18:18.086Z,14.80
2019-03-18T06:20:47.110Z,15.13
2019-03-18T06:23:16.442Z,16.87
2019-03-18T06:25:45.530Z,17.10
2019-03-18T06:28:14.546Z,15.40
2019-03-18T06:30:43.915Z,16.83
2019-03-18T06:33:13.287Z,15.87
2019-03-18T06:35:42.352Z,16.03
2019-03-18T06:38:11.298Z,17.13
2019-03-18T06:40:40.372Z,16.40
2019-03-18T06:43:09.273Z,17.30
2019-03-18T06:45:38.292Z,17.73
2019-03-18T06:48:09.220Z,16.70
2019-03-18T06:50:38.429Z,20.10
2019-03-18T06:53:07.376Z,18.03
2019-03-18T06:55:36.384Z,19.30
2019-03-18T06:58:05.436Z,19.20
2019-03-18T07:00:34.450Z,18.57
2019-03-18T07:03:03.527Z,18.70
2019-03-18T07:05:32.542Z,17.20
2019-03-18T07:08:01.568Z,17.30
2019-03-18T07:10:30.633Z,16.90
2019-03-18T07:12:59.679Z,15.10
2019-03-18T07:15:28.749Z,15.00
2019-03-18T07:17:57.807Z,15.97
2019-03-18T07:20:27.173Z,15.50
2019-03-18T07:22:56.405Z,16.17
2019-03-18T07:25:25.422Z,16.10
2019-03-18T07:27:54.429Z,14.77
2019-03-18T07:30:23.470Z,17.10
2019-03-18T07:32:52.807Z,15.33
2019-03-18T07:35:21.895Z,16.13
2019-03-18T07:37:50.943Z,17.90
2019-03-18T07:40:19.984Z,16.20
2019-03-18T07:42:49.034Z,17.30
2019-03-18T07:45:18.080Z,17.00
2019-03-18T07:47:47.097Z,16.80
2019-03-18T07:50:16.369Z,16.73
2019-03-18T07:52:45.416Z,18.53
2019-03-18T07:55:14.444Z,16.67
2019-03-18T07:57:43.518Z,18.17
2019-03-18T08:00:12.575Z,18.13
2019-03-18T08:02:41.999Z,17.57
2019-03-18T08:05:11.233Z,17.80
2019-03-18T08:07:40.238Z,16.37
2019-03-18T08:10:09.540Z,15.27
2019-03-18T08:12:38.885Z,16.90
2019-03-18T08:15:07.936Z,14.93
2019-03-18T08:17:37.012Z,14.93
2019-03-18T08:20:06.751Z,15.50
2019-03-18T08:22:35.765Z,15.53
2019-03-18T08:25:05.188Z,16.03
2019-03-18T08:27:34.144Z,15.17
2019-03-18T08:30:03.215Z,16.50
2019-03-18T08:32:32.270Z,16.03
2019-03-18T08:35:01.246Z,16.50
2019-03-18T08:37:30.257Z,16.00
2019-03-18T08:39:59.269Z,16.63
2019-03-18T08:42:28.585Z,14.20
2019-03-18T08:44:57.531Z,14.10
2019-03-18T08:47:26.591Z,14.37
2019-03-18T08:49:55.594Z,15.03
2019-03-18T08:52:24.640Z,15.80
2019-03-18T08:54:53.719Z,14.23
2019-03-18T08:57:22.745Z,15.43
2019-03-18T08:59:51.765Z,14.40
2019-03-18T09:02:20.822Z,15.70
2019-03-18T09:04:50.762Z,15.40
2019-03-18T09:07:19.813Z,15.57
2019-03-18T09:09:49.358Z,14.57
2019-03-18T09:12:18.377Z,14.90
2019-03-18T09:14:47.401Z,16.13
2019-03-18T09:17:16.458Z,15.50
2019-03-18T09:19:45.795Z,15.70
2019-03-18T09:22:14.808Z,15.20
2019-03-18T09:24:43.865Z,15.20
2019-03-18T09:27:13.147Z,15.03
2019-03-18T09:29:42.598Z,15.77
2019-03-18T09:32:11.608Z,17.10
2019-03-18T09:34:40.617Z,17.70
2019-03-18T09:37:09.688Z,16.70
2019-03-18T09:39:38.691Z,17.00
2019-03-18T09:42:07.770Z,17.13
2019-03-18T09:44:36.826Z,17.13
2019-03-18T09:47:05.812Z,19.10
2019-03-18T09:49:34.819Z,18.40
2019-03-18T09:52:03.892Z,17.77
2019-03-18T09:54:32.853Z,17.50
2019-03-18T09:57:01.878Z,15.57
2019-03-18T09:59:31.239Z,16.33
2019-03-18T10:02:00.264Z,16.17
2019-03-18T10:04:29.244Z,14.70
2019-03-18T10:06:58.293Z,14.40
2019-03-18T10:09:27.267Z,15.70
2019-03-18T10:11:56.258Z,15.20
2019-03-18T10:14:25.324Z,13.90
2019-03-18T10:16:54.336Z,14.43
2019-03-18T10:19:33.101Z,12.83
2019-03-18T10:21:54.175Z,14.90
2019-03-18T10:24:23.226Z,14.83
2019-03-18T10:26:52.281Z,14.00
2019-03-18T10:29:21.332Z,17.33
2019-03-18T10:31:50.415Z,15.53
2019-03-18T10:34:19.789Z,21.47
2019-03-18T10:36:48.804Z,20.77
2019-03-18T10:39:17.875Z,21.40
2019-03-18T10:41:46.873Z,20.37
2019-03-18T10:44:15.863Z,19.63
2019-03-18T10:46:44.887Z,18.77
2019-03-18T10:49:15.206Z,16.27
2019-03-18T10:51:44.168Z,19.50
2019-03-18T10:54:13.271Z,16.43
2019-03-18T10:56:42.248Z,17.97
2019-03-18T10:59:11.294Z,17.67
2019-03-18T11:01:40.239Z,19.10
2019-03-18T11:04:09.311Z,19.13
2019-03-18T11:06:38.354Z,16.40
2019-03-18T11:09:08.115Z,16.17
2019-03-18T11:11:37.738Z,16.10
2019-03-18T11:14:06.786Z,13.57
2019-03-18T11:16:35.836Z,15.60
2019-03-18T11:19:04.847Z,13.33
2019-03-18T11:21:33.888Z,15.77
2019-03-18T11:24:03.237Z,18.30
2019-03-18T11:26:32.301Z,17.03
2019-03-18T11:29:01.348Z,15.27
2019-03-18T11:31:30.285Z,16.77
2019-03-18T11:33:59.301Z,17.10
2019-03-18T11:36:31.493Z,16.70
2019-03-18T11:38:59.413Z,14.50
2019-03-18T11:41:28.425Z,15.10
2019-03-18T11:43:58.076Z,16.47
2019-03-18T11:46:27.138Z,15.00
2019-03-18T11:48:56.144Z,16.80
2019-03-18T11:51:25.148Z,17.77
2019-03-18T11:53:54.535Z,16.50
2019-03-18T11:56:23.815Z,16.00
2019-03-18T11:58:52.873Z,19.10
2019-03-18T12:01:21.913Z,17.80
2019-03-18T12:03:50.922Z,16.00
2019-03-18T12:06:20.022Z,16.30
2019-03-18T12:08:48.965Z,17.70
2019-03-18T12:11:17.951Z,15.87
2019-03-18T12:13:47.320Z,18.63
2019-03-18T12:16:16.371Z,16.30
2019-03-18T12:18:45.312Z,17.00
2019-03-18T12:21:16.034Z,14.60
2019-03-18T12:23:45.550Z,14.97
2019-03-18T12:26:14.685Z,14.50
2019-03-18T12:28:43.560Z,15.53
2019-03-18T12:31:12.611Z,15.43
2019-03-18T12:33:42.003Z,15.67
2019-03-18T12:36:11.188Z,17.60
2019-03-18T12:38:40.242Z,15.83
2019-03-18T12:41:09.316Z,17.30
2019-03-18T12:43:38.728Z,17.00
2019-03-18T12:46:07.741Z,17.10
2019-03-18T12:48:36.791Z,17.27
2019-03-18T12:51:05.866Z,17.93
2019-03-18T12:53:34.876Z,17.23
2019-03-18T12:56:03.950Z,17.30
2019-03-18T12:58:32.971Z,17.07
2019-03-18T13:01:12.135Z,17.57
2019-03-18T13:03:32.698Z,17.53
2019-03-18T13:06:01.767Z,17.50
2019-03-18T13:08:30.853Z,16.60
2019-03-18T13:10:59.885Z,18.43
2019-03-18T13:13:28.987Z,19.00
2019-03-18T13:15:58.296Z,19.00
2019-03-18T13:18:27.319Z,17.70
2019-03-18T13:21:07.309Z,17.83
2019-03-18T13:23:27.150Z,17.37
2019-03-18T13:25:56.164Z,16.30
2019-03-18T13:28:25.213Z,17.80
2019-03-18T13:30:54.233Z,17.20
2019-03-18T13:33:23.273Z,15.43
2019-03-18T13:35:52.305Z,14.93
2019-03-18T13:38:21.686Z,14.37
2019-03-18T13:40:50.704Z,13.97
2019-03-18T13:43:19.685Z,10.40
2019-03-18T13:45:55.145Z,10.00
2019-03-18T13:48:19.533Z,11.13
2019-03-18T13:50:48.532Z,10.60
2019-03-18T13:53:17.590Z,10.67
2019-03-18T13:55:46.648Z,9.70
2019-03-18T13:58:15.724Z,8.80
2019-03-18T14:00:44.761Z,10.63
2019-03-18T14:03:13.860Z,11.20
2019-03-18T14:05:42.867Z,9.40
2019-03-18T14:08:11.979Z,10.00
2019-03-18T14:10:41.124Z,8.60
2019-03-18T14:13:10.133Z,9.60
2019-03-18T14:15:39.219Z,10.00
2019-03-18T14:18:08.327Z,10.57
2019-03-18T14:20:37.355Z,10.20
2019-03-18T14:23:06.754Z,10.83
2019-03-18T14:25:36.166Z,8.87
2019-03-18T14:28:05.167Z,9.07
2019-03-18T14:30:34.184Z,9.63
2019-03-18T14:33:03.237Z,9.00
2019-03-18T14:35:32.267Z,8.50
2019-03-18T14:38:01.353Z,9.40
2019-03-18T14:40:30.405Z,10.07
2019-03-18T14:42:59.461Z,10.87
2019-03-18T14:45:28.498Z,9.30
2019-03-18T14:47:57.554Z,11.33
2019-03-18T14:50:26.598Z,9.80
2019-03-18T14:52:55.773Z,11.10
2019-03-18T14:55:24.825Z,18.33
2019-03-18T14:57:54.154Z,15.93
2019-03-18T15:00:23.255Z,18.43
2019-03-18T15:02:52.275Z,17.00
2019-03-18T15:05:21.320Z,17.60
2019-03-18T15:07:50.330Z,18.70
2019-03-18T15:10:19.414Z,17.70
2019-03-18T15:12:48.435Z,17.90
2019-03-18T15:15:17.914Z,17.67
2019-03-18T15:17:46.987Z,17.50
2019-03-18T15:20:16.089Z,16.50
2019-03-18T15:22:45.156Z,17.67
2019-03-18T15:25:16.513Z,16.37
2019-03-18T15:27:45.563Z,20.60
2019-03-18T15:30:16.594Z,11.43
2019-03-18T15:32:45.557Z,9.97
2019-03-18T15:35:14.627Z,9.80
2019-03-18T15:37:44.003Z,10.20
2019-03-18T15:40:14.360Z,10.33
2019-03-18T15:42:43.436Z,11.90
2019-03-18T15:45:13.177Z,10.80
2019-03-18T15:47:42.230Z,11.10
2019-03-18T15:50:13.453Z,10.50
2019-03-18T15:52:42.460Z,11.50
2019-03-18T15:55:11.634Z,11.40
2019-03-18T15:57:40.815Z,11.00
2019-03-18T16:00:11.869Z,10.63
2019-03-18T16:02:40.923Z,11.13
2019-03-18T16:05:10.514Z,10.37
2019-03-18T16:07:39.593Z,12.57
2019-03-18T16:10:09.351Z,13.13
2019-03-18T16:12:38.437Z,11.30
2019-03-18T16:15:08.088Z,12.63
2019-03-18T16:17:37.123Z,11.80
2019-03-18T16:20:07.714Z,12.73
2019-03-18T16:22:36.726Z,13.60
2019-03-18T16:25:06.106Z,11.90
2019-03-18T16:27:35.274Z,12.30
2019-03-18T16:30:05.090Z,16.40
2019-03-18T16:32:34.410Z,13.60
2019-03-18T16:35:03.467Z,12.10
2019-03-18T16:37:32.477Z,13.73
2019-03-18T16:40:01.999Z,13.70
2019-03-18T16:42:31.035Z,12.80
2019-03-18T16:45:00.356Z,14.73
2019-03-18T16:47:31.400Z,14.77
2019-03-18T16:50:00.276Z,14.40
2019-03-18T16:52:35.587Z,14.70
2019-03-18T16:55:00.127Z,11.97
2019-03-18T16:57:29.397Z,13.80
2019-03-18T16:59:58.458Z,12.93
2019-03-18T17:02:27.634Z,11.30
2019-03-18T17:04:57.294Z,11.27
2019-03-18T17:07:26.318Z,11.57
2019-03-18T17:09:55.349Z,11.17
2019-03-18T17:12:24.367Z,10.37
2019-03-18T17:14:53.370Z,11.23
2019-03-18T17:17:22.770Z,11.00
2019-03-18T17:19:51.731Z,10.43
2019-03-18T17:22:20.781Z,9.97
2019-03-18T17:24:49.900Z,10.70
2019-03-18T17:27:18.948Z,10.70
2019-03-18T17:29:47.969Z,11.77
2019-03-18T17:32:17.106Z,10.67
2019-03-18T17:34:46.128Z,11.13
2019-03-18T17:37:15.463Z,10.30
2019-03-18T17:39:44.506Z,10.27
2019-03-18T17:42:13.655Z,13.37
2019-03-18T17:44:42.706Z,12.20
2019-03-18T17:47:11.777Z,12.30
2019-03-18T17:49:40.726Z,13.80
2019-03-18T17:52:09.785Z,12.33
2019-03-18T17:54:38.725Z,14.13
2019-03-18T17:57:09.944Z,14.97
2019-03-18T17:59:38.916Z,15.97
2019-03-18T18:02:07.931Z,14.07
2019-03-18T18:04:36.986Z,16.70
2019-03-18T18:07:05.994Z,17.97
2019-03-18T18:09:35.404Z,16.80
2019-03-18T18:12:04.490Z,16.07
2019-03-18T18:14:33.528Z,15.37
2019-03-18T18:17:02.576Z,17.63
2019-03-18T18:19:31.597Z,16.57
2019-03-18T18:22:00.916Z,16.63
2019-03-18T18:24:29.971Z,18.10
2019-03-18T18:26:59.037Z,16.67
2019-03-18T18:29:28.054Z,15.93
2019-03-18T18:31:57.084Z,17.07
2019-03-18T18:34:26.177Z,15.03
2019-03-18T18:36:55.180Z,16.17
2019-03-18T18:39:24.188Z,17.50
2019-03-18T18:41:53.237Z,16.70
2019-03-18T18:44:22.252Z,16.20
2019-03-18T18:46:51.687Z,17.90
2019-03-18T18:49:20.690Z,15.30
2019-03-18T18:51:49.718Z,17.80
2019-03-18T18:54:18.696Z,15.70
2019-03-18T18:56:47.781Z,15.20
2019-03-18T18:59:18.570Z,14.87
2019-03-18T19:01:47.541Z,13.80
2019-03-18T19:04:16.589Z,12.00
2019-03-18T19:06:45.619Z,11.73
2019-03-18T19:09:14.639Z,13.97
2019-03-18T19:11:43.690Z,14.03
2019-03-18T19:14:12.703Z,13.40
2019-03-18T19:16:41.683Z,12.40
2019-03-18T19:19:10.698Z,11.47
2019-03-18T19:21:39.747Z,13.33
2019-03-18T19:24:08.762Z,12.10
2019-03-18T19:26:38.065Z,13.03
2019-03-18T19:29:07.109Z,13.90
2019-03-18T19:31:36.214Z,13.20
2019-03-18T19:34:05.266Z,13.13
2019-03-18T19:36:34.565Z,14.30
2019-03-18T19:39:04.957Z,13.70
2019-03-18T19:41:33.976Z,14.00
2019-03-18T19:44:03.101Z,15.17
2019-03-18T19:46:32.116Z,14.93
2019-03-18T19:49:01.189Z,13.60
2019-03-18T19:51:30.218Z,14.30
2019-03-18T19:53:59.373Z,14.87
2019-03-18T19:56:28.413Z,15.97
2019-03-18T19:58:57.514Z,13.60
2019-03-18T20:01:26.523Z,14.13
2019-03-18T20:03:55.467Z,12.67
2019-03-18T20:06:24.534Z,13.73
2019-03-18T20:08:53.551Z,13.57
2019-03-18T20:11:22.559Z,14.93
2019-03-18T20:13:51.966Z,12.80
2019-03-18T20:16:21.105Z,14.73
2019-03-18T20:18:50.515Z,13.60
2019-03-18T20:21:19.569Z,13.87
2019-03-18T20:24:00.090Z,15.60
2019-03-18T20:26:19.698Z,14.73
2019-03-18T20:28:48.766Z,13.93
2019-03-18T20:31:25.729Z,15.43
2019-03-18T20:33:48.981Z,14.07
2019-03-18T20:36:18.063Z,14.03
2019-03-18T20:38:47.027Z,13.20
2019-03-18T20:41:16.136Z,13.47
2019-03-18T20:43:45.146Z,14.63
2019-03-18T20:46:14.209Z,14.83
2019-03-18T20:48:43.227Z,14.70
2019-03-18T20:51:12.249Z,14.27
2019-03-18T20:53:41.220Z,15.20
2019-03-18T20:56:10.224Z,13.83
2019-03-18T20:58:39.278Z,14.53
2019-03-18T21:01:08.350Z,13.77
2019-03-18T21:03:37.426Z,13.47
2019-03-18T21:06:06.573Z,14.30
2019-03-18T21:08:35.626Z,13.57
2019-03-18T21:11:04.678Z,15.63
2019-03-18T21:13:34.010Z,15.87
2019-03-18T21:16:03.163Z,14.73
2019-03-18T21:18:32.175Z,15.60
2019-03-18T21:21:01.214Z,15.80
2019-03-18T21:23:30.269Z,13.87
2019-03-18T21:25:59.277Z,15.13
2019-03-18T21:28:28.306Z,16.33
2019-03-18T21:30:57.409Z,14.40
2019-03-18T21:33:26.421Z,14.77
2019-03-18T21:35:55.899Z,15.10
2019-03-18T21:38:25.031Z,15.47
2019-03-18T21:40:54.129Z,17.40
2019-03-18T21:43:23.154Z,16.23
2019-03-18T21:45:52.164Z,16.10
2019-03-18T21:48:21.219Z,14.00
2019-03-18T21:50:50.238Z,15.00
2019-03-18T21:53:19.232Z,17.70
2019-03-18T21:55:48.229Z,15.73
2019-03-18T21:58:17.291Z,15.90
2019-03-18T22:00:46.310Z,20.50
2019-03-18T22:03:15.358Z,15.37
2019-03-18T22:05:44.510Z,14.73
2019-03-18T22:08:13.423Z,14.73
2019-03-18T22:10:42.539Z,15.47
2019-03-18T22:13:11.614Z,16.00
2019-03-18T22:15:40.629Z,16.57
2019-03-18T22:18:09.682Z,15.37
2019-03-18T22:20:38.790Z,16.57
2019-03-18T22:23:07.844Z,17.27
2019-03-18T22:25:36.854Z,16.53
2019-03-18T22:28:05.916Z,16.30
2019-03-18T22:30:35.012Z,17.33
2019-03-18T22:33:04.115Z,16.40
2019-03-18T22:35:33.120Z,17.50
2019-03-18T22:38:02.138Z,17.03
2019-03-18T22:40:31.187Z,18.60
2019-03-18T22:43:00.205Z,18.73
2019-03-18T22:45:29.173Z,15.63
2019-03-18T22:47:58.233Z,17.07
2019-03-18T22:50:27.242Z,18.00
2019-03-18T22:52:56.181Z,19.30
2019-03-18T22:55:25.233Z,17.90
2019-03-18T22:57:54.153Z,19.47
2019-03-18T23:00:46.220Z,19.70
2019-03-18T23:03:15.366Z,19.10
2019-03-18T23:05:44.375Z,18.07
2019-03-18T23:08:13.827Z,16.93
2019-03-18T23:10:42.839Z,18.33
2019-03-18T23:13:11.960Z,18.43
2019-03-18T23:15:41.395Z,17.80
2019-03-18T23:18:10.403Z,18.83
2019-03-18T23:20:39.423Z,18.60
2019-03-18T23:23:08.481Z,17.80
2019-03-18T23:25:37.490Z,19.33
2019-03-18T23:28:06.536Z,18.20
2019-03-18T23:30:35.582Z,17.33
2019-03-18T23:33:04.658Z,18.70
2019-03-18T23:35:33.711Z,18.03
2019-03-18T23:38:02.778Z,18.50
2019-03-18T23:40:31.709Z,19.67
2019-03-18T23:43:00.719Z,18.87
2019-03-18T23:45:29.785Z,19.00
2019-03-18T23:47:58.834Z,19.17
2019-03-18T23:50:27.823Z,20.80
2019-03-18T23:52:56.842Z,17.53
2019-03-18T23:55:25.854Z,17.20
2019-03-18T23:57:54.871Z,19.77
